TimeEST,TemperatureF,Dew PointF,Humidity,Sea Level PressureIn,VisibilityMPH,Wind Direction,Wind SpeedMPH,Gust SpeedMPH,PrecipitationIn,Events,Conditions,WindDirDegrees,DateUTC
12:51 AM,28.0,10.9,49,29.71,10.0,North,15.0,-,N/A,,Overcast,360,2013-02-17 05:51:00
1:51 AM,28.0,8.1,43,29.71,10.0,North,17.3,-,N/A,,Overcast,350,2013-02-17 06:51:00
2:51 AM,27.0,8.1,45,29.65,10.0,North,16.1,23.0,N/A,,Overcast,350,2013-02-17 07:51:00
3:51 AM,26.1,8.1,47,29.62,10.0,NNW,13.8,-,N/A,,Overcast,330,2013-02-17 08:51:00
4:51 AM,24.1,9.0,53,29.57,10.0,NNW,21.9,31.1,N/A,,Overcast,340,2013-02-17 09:51:00
5:51 AM,21.9,14.0,72,29.54,2.5,NNW,17.3,29.9,0.00,Snow,Light Snow,340,2013-02-17 10:51:00
6:28 AM,21.2,15.8,80,29.50,2.5,NNW,20.7,26.5,N/A,Snow,Light Snow,330,2013-02-17 11:28:00
6:51 AM,21.0,16.0,81,29.48,1.2,NNW,18.4,26.5,0.00,Snow,Light Snow,330,2013-02-17 11:51:00
7:18 AM,21.0,16.0,81,29.45,1.2,NNW,17.3,27.6,0.00,Snow,Light Snow,330,2013-02-17 12:18:00
7:51 AM,21.0,16.0,81,29.42,1.2,NNW,20.7,29.9,0.00,Snow,Light Snow,330,2013-02-17 12:51:00
8:32 AM,21.0,17.1,85,29.39,1.0,NW,19.6,26.5,0.00,Snow,Light Snow,320,2013-02-17 13:32:00
8:51 AM,21.0,17.1,85,29.38,0.8,NNW,19.6,26.5,0.01,Snow,Light Snow,330,2013-02-17 13:51:00
9:51 AM,21.0,16.0,81,29.34,1.0,NNW,19.6,27.6,0.00,Snow,Light Snow,330,2013-02-17 14:51:00
10:20 AM,21.0,16.0,81,29.32,0.8,NNW,25.3,34.5,0.00,Snow,Light Snow,330,2013-02-17 15:20:00
10:51 AM,21.0,16.0,81,29.31,0.5,NW,25.3,35.7,0.00,Snow,Snow,320,2013-02-17 15:51:00
11:38 AM,21.0,16.0,81,29.28,0.2,NW,20.7,35.7,0.01,Snow,Heavy Snow,320,2013-02-17 16:38:00
11:51 AM,19.9,16.0,85,29.28,0.2,NW,23.0,38.0,0.01,Fog-Snow,Snow,320,2013-02-17 16:51:00
12:51 PM,21.0,15.1,78,29.24,0.2,NW,31.1,44.9,0.01,Snow,Light Snow,320,2013-02-17 17:51:00
1:05 PM,21.0,15.1,78,29.23,0.2,NW,31.1,43.7,0.00,Snow,Light Snow,310,2013-02-17 18:05:00
1:17 PM,21.0,15.1,78,29.23,0.5,NW,29.9,47.2,0.00,Snow,Light Snow,310,2013-02-17 18:17:00
1:35 PM,21.9,15.1,75,29.23,1.0,NW,26.5,38.0,0.00,Snow,Light Snow,310,2013-02-17 18:35:00
1:48 PM,21.2,15.8,80,29.22,1.5,NW,26.5,36.8,0.00,Snow,Light Snow,310,2013-02-17 18:48:00
1:51 PM,21.9,14.0,72,29.23,1.5,NW,28.8,39.1,0.00,Snow,Light Snow,310,2013-02-17 18:51:00
1:58 PM,21.9,12.9,68,29.22,1.0,NW,31.1,44.9,0.00,Snow,Light Snow,320,2013-02-17 18:58:00
2:03 PM,21.9,12.9,68,29.22,4.0,NW,32.2,48.3,0.00,Snow,Light Snow,320,2013-02-17 19:03:00
2:51 PM,23.0,10.9,60,29.24,10.0,NW,33.4,48.3,0.00,,Overcast,320,2013-02-17 19:51:00
3:51 PM,23.0,7.0,50,29.26,10.0,NW,26.5,48.3,N/A,,Overcast,320,2013-02-17 20:51:00
4:51 PM,24.1,5.0,44,29.28,10.0,NW,18.4,31.1,N/A,,Overcast,310,2013-02-17 21:51:00
5:51 PM,21.9,1.0,40,29.33,10.0,NW,25.3,39.1,N/A,,Overcast,320,2013-02-17 22:51:00
6:51 PM,21.0,1.9,44,29.36,10.0,WNW,17.3,28.8,N/A,,Overcast,300,2013-02-17 23:51:00
7:51 PM,19.9,1.0,44,29.39,10.0,WNW,15.0,25.3,N/A,,Overcast,300,2013-02-18 00:51:00
8:51 PM,19.9,1.9,46,29.42,10.0,WNW,20.7,-,N/A,,Overcast,290,2013-02-18 01:51:00
9:51 PM,19.9,3.0,48,29.43,10.0,WNW,23.0,28.8,N/A,,Overcast,290,2013-02-18 02:51:00
10:51 PM,19.9,1.9,46,29.45,10.0,West,19.6,-,N/A,,Overcast,280,2013-02-18 03:51:00